Terminal Aerodrome Forecast
Issued by NWS

Home | Current Version | Previous Version | Text Only | Print | Product List | Glossary On
Versions: 1 2 3 4 5 6 7 8 9 10 11 12 13 14 15 16 17 18 19 20 21 22 23 24 25 26
993
FTUS43 KLSX 282335
TAFUIN
TAF
KUIN 282335Z 2900/2924 05008KT P6SM OVC020
     FM290300 06009KT P6SM BKN035
     FM290900 07011KT P6SM OVC025
     FM291400 07012G20KT 5SM -SHRA OVC010
     FM291800 09014G23KT P6SM OVC008=

USA.gov is the U.S. government's official web portal to all federal, state and local government web resources and services.